Time;durP1;ratioP1;P1;durP2;ratioP2;P2;SDS_P1;SDS_P2;PMS_P1;PMS_P2;Temp;Humidity;BMP_temperature;BMP_pressure;BME280_temperature;BME280_humidity;BME280_pressure;Samples;Min_cycle;Max_cycle;Signal;HPM_P1;HPM_P2
2022/11/06 00:02:18;;;;;;;;;;;;;;;8.79;88.18;101412.31;5040935;28;20007;-59
2022/11/06 00:04:44;;;;;;;;;;;;;;;8.78;88.44;101408.00;5046701;28;19916;-58
2022/11/06 00:07:09;;;;;;;;;;;;;;;8.77;88.20;101402.84;5043656;28;19967;-58
2022/11/06 00:09:34;;;;;;;;;;;;;;;8.75;88.33;101412.75;5041751;28;19917;-58
2022/11/06 00:11:59;;;;;;;;;;;;;;;8.73;88.21;101407.59;5043185;28;20827;-58
2022/11/06 00:14:24;;;;;;;;;;;;;;;8.73;88.36;101412.06;5043613;28;19916;-58
2022/11/06 00:16:49;;;;;;;;;;;;;;;8.72;88.60;101403.28;5048291;28;20303;-58
2022/11/06 00:19:15;;;;;;;;;;;;;;;8.66;88.71;101399.38;5043767;28;19921;-59
2022/11/06 00:21:40;;;;;;;;;;;;;;;8.69;88.40;101406.22;5039181;28;20011;-58
2022/11/06 00:24:06;;;;;;;;;;;;;;;8.67;88.83;101397.56;5042123;28;19917;-57
2022/11/06 00:26:32;;;;;;;;;;;;;;;8.66;88.63;101390.59;5041170;28;19917;-58
2022/11/06 00:28:57;;;;;;;;;;;;;;;8.66;88.66;101390.59;5045017;28;19927;-58
2022/11/06 00:31:27;;;;;;;;;;;;;;;8.67;88.79;101397.56;5040693;28;20400;-57
2022/11/06 00:33:53;;;;;;;;;;;;;;;8.68;88.72;101389.50;5043829;28;19917;-58
2022/11/06 00:36:19;;;;;;;;;;;;;;;8.68;88.72;101380.72;5040992;28;19925;-57
2022/11/06 00:38:45;;;;;;;;;;;;;;;8.69;88.77;101382.41;5042506;28;19917;-57
2022/11/06 00:41:11;;;;;;;;;;;;;;;8.70;88.90;101386.72;5039808;28;19924;-58
2022/11/06 00:43:36;;;;;;;;;;;;;;;8.70;88.92;101386.72;5042736;28;20020;-58
2022/11/06 00:46:03;;;;;;;;;;;;;;;8.68;88.76;101378.09;5041243;28;20000;-58
2022/11/06 00:48:28;;;;;;;;;;;;;;;8.67;88.95;101384.31;5041180;28;19982;-58
2022/11/06 00:50:53;;;;;;;;;;;;;;;8.65;89.01;101391.56;5039382;28;19924;-58
2022/11/06 00:53:19;;;;;;;;;;;;;;;8.62;88.64;101384.75;5043622;28;19924;-58
2022/11/06 00:55:44;;;;;;;;;;;;;;;8.60;88.90;101394.66;5039925;28;20007;-57
2022/11/06 00:58:09;;;;;;;;;;;;;;;8.59;88.83;101390.34;5045939;28;19924;-58
2022/11/06 01:00:34;;;;;;;;;;;;;;;8.58;88.88;101387.84;5044183;28;19952;-58
2022/11/06 01:02:59;;;;;;;;;;;;;;;8.56;88.95;101387.16;5041316;28;19927;-57
2022/11/06 01:05:24;;;;;;;;;;;;;;;8.54;88.88;101381.19;5041012;28;19928;-58
2022/11/06 01:07:50;;;;;;;;;;;;;;;8.54;89.21;101384.66;5042205;28;20301;-58
2022/11/06 01:10:15;;;;;;;;;;;;;;;8.53;89.29;101382.16;5039783;28;20400;-58
2022/11/06 01:12:40;;;;;;;;;;;;;;;8.53;89.26;101384.81;5043951;28;19920;-58
2022/11/06 01:15:05;;;;;;;;;;;;;;;8.51;89.12;101392.06;5041765;28;21796;-58
2022/11/06 01:17:30;;;;;;;;;;;;;;;8.49;89.17;101384.25;5044389;28;19924;-58
2022/11/06 01:19:56;;;;;;;;;;;;;;;8.48;89.24;101377.31;5040764;28;20732;-57
2022/11/06 01:22:21;;;;;;;;;;;;;;;8.47;89.07;101372.16;5044005;28;19928;-57
2022/11/06 01:24:46;;;;;;;;;;;;;;;8.45;89.12;101366.16;5043551;28;20438;-58
2022/11/06 01:27:11;;;;;;;;;;;;;;;8.45;89.49;101368.81;5043874;28;19920;-58
2022/11/06 01:29:36;;;;;;;;;;;;;;;8.44;89.73;101369.78;5036851;28;19932;-57
2022/11/06 01:32:02;;;;;;;;;;;;;;;8.45;89.66;101361.72;5038891;28;20011;-58
2022/11/06 01:34:27;;;;;;;;;;;;;;;8.45;89.49;101355.59;5039994;28;20066;-58
2022/11/06 01:36:52;;;;;;;;;;;;;;;8.47;89.92;101356.25;5040908;28;20368;-57
2022/11/06 01:39:17;;;;;;;;;;;;;;;8.51;89.81;101357.66;5039186;28;20290;-58
2022/11/06 01:41:45;;;;;;;;;;;;;;;8.52;89.72;101356.66;5039450;28;19963;-58
2022/11/06 01:44:13;;;;;;;;;;;;;;;8.53;89.53;101353.88;5040960;28;19917;-58
2022/11/06 01:46:38;;;;;;;;;;;;;;;8.54;89.53;101352.06;5041774;28;19936;-58
2022/11/06 01:49:09;;;;;;;;;;;;;;;8.54;89.89;101347.59;5037124;28;19924;-59
2022/11/06 01:51:37;;;;;;;;;;;;;;;8.57;89.37;101352.59;5040194;28;19917;-58
2022/11/06 01:54:03;;;;;;;;;;;;;;;8.60;89.36;101348.81;5052584;28;19924;-58
2022/11/06 01:56:29;;;;;;;;;;;;;;;8.61;89.62;101347.84;5042495;28;19917;-58
2022/11/06 01:58:54;;;;;;;;;;;;;;;8.62;89.79;101346.88;5046880;28;20435;-58
2022/11/06 02:01:19;;;;;;;;;;;;;;;8.62;89.31;101342.41;5043895;28;19925;-58
2022/11/06 02:03:48;;;;;;;;;;;;;;;8.64;89.64;101331.66;5046077;28;19995;-57
2022/11/06 02:06:14;;;;;;;;;;;;;;;8.66;89.41;101329.69;5045452;28;19917;-57
2022/11/06 02:08:39;;;;;;;;;;;;;;;8.66;89.26;101335.84;5043493;28;20403;-58
2022/11/06 02:11:04;;;;;;;;;;;;;;;8.67;89.54;101339.31;5044631;28;19923;-58
2022/11/06 02:13:29;;;;;;;;;;;;;;;8.68;89.46;101336.56;5044154;28;19939;-58
2022/11/06 02:16:11;;;;;;;;;;;;;;;8.69;89.62;101340.88;5048570;28;20021;-58
2022/11/06 02:18:45;;;;;;;;;;;;;;;8.73;89.34;101329.97;5042925;28;19927;-57
2022/11/06 02:21:35;;;;;;;;;;;;;;;8.77;89.13;101326.88;5043210;28;19973;-58
2022/11/06 02:24:23;;;;;;;;;;;;;;;8.79;89.33;101324.91;5046083;28;19968;-58
2022/11/06 02:26:55;;;;;;;;;;;;;;;8.79;89.19;101316.97;5046921;28;19975;-58
2022/11/06 02:29:24;;;;;;;;;;;;;;;8.79;89.21;101316.97;5044040;28;21068;-57
2022/11/06 02:31:53;;;;;;;;;;;;;;;8.80;89.02;101309.88;5042690;28;20229;-58
2022/11/06 02:34:19;;;;;;;;;;;;;;;8.81;89.11;101314.19;5044439;28;20344;-59
2022/11/06 02:36:49;;;;;;;;;;;;;;;8.79;88.88;101314.31;5043857;28;19932;-59
2022/11/06 02:39:17;;;;;;;;;;;;;;;8.80;89.10;101307.22;5040388;28;19960;-58
2022/11/06 02:41:44;;;;;;;;;;;;;;;8.80;89.21;101300.09;5044738;28;19917;-58
2022/11/06 02:44:16;;;;;;;;;;;;;;;8.81;89.20;101295.63;5042241;28;19971;-58
2022/11/06 02:46:53;;;;;;;;;;;;;;;8.81;88.70;101291.19;5045530;28;20043;-57
2022/11/06 02:49:25;;;;;;;;;;;;;;;8.82;88.91;101303.44;5041589;28;19921;-58
2022/11/06 02:51:53;;;;;;;;;;;;;;;8.82;89.01;101299.94;5043989;28;20459;-58
2022/11/06 02:54:20;;;;;;;;;;;;;;;8.82;88.77;101299.94;5046775;28;19921;-58
2022/11/06 02:56:49;;;;;;;;;;;;;;;8.80;88.98;101302.75;5041592;28;19921;-58
2022/11/06 02:59:17;;;;;;;;;;;;;;;8.79;88.94;101298.44;5045160;28;19924;-58
2022/11/06 03:01:48;;;;;;;;;;;;;;;8.78;88.82;101301.25;5041777;28;19932;-58
2022/11/06 03:04:26;;;;;;;;;;;;;;;8.77;88.92;101297.75;5047828;28;20385;-58
2022/11/06 03:06:55;;;;;;;;;;;;;;;8.78;89.00;101311.81;5042937;28;19917;-59
2022/11/06 03:09:24;;;;;;;;;;;;;;;8.77;89.00;101304.88;5042614;28;19947;-58
2022/11/06 03:11:55;;;;;;;;;;;;;;;8.75;88.91;101307.66;5042290;28;19971;-58
2022/11/06 03:14:25;;;;;;;;;;;;;;;8.77;89.09;101318.09;5046047;28;19917;-59
2022/11/06 03:16:56;;;;;;;;;;;;;;;8.77;88.89;101313.66;5042846;28;19923;-58
2022/11/06 03:19:44;;;;;;;;;;;;;;;8.78;88.98;101319.78;5043183;28;19929;-57
2022/11/06 03:22:12;;;;;;;;;;;;;;;8.79;89.36;101306.38;5044561;28;20031;-58
2022/11/06 03:24:44;;;;;;;;;;;;;;;8.79;88.92;101292.31;5044914;28;19952;-58
2022/11/06 03:27:18;;;;;;;;;;;;;;;8.80;88.99;101289.50;5040702;28;19916;-58
2022/11/06 03:29:46;;;;;;;;;;;;;;;8.80;89.22;101278.09;5045069;28;20406;-58
2022/11/06 03:32:19;;;;;;;;;;;;;;;8.82;89.33;101271.66;5042137;28;19975;-58
2022/11/06 03:34:50;;;;;;;;;;;;;;;8.81;88.76;101266.50;5041918;28;20406;-57
2022/11/06 03:37:19;;;;;;;;;;;;;;;8.81;88.89;101267.34;5042091;28;20433;-58
2022/11/06 03:39:50;;;;;;;;;;;;;;;8.83;89.17;101272.50;5045849;28;19928;-57
2022/11/06 03:42:19;;;;;;;;;;;;;;;8.85;89.08;101259.94;5043979;28;19917;-57
2022/11/06 03:44:46;;;;;;;;;;;;;;;8.86;88.91;101265.06;5043232;28;19964;-59
2022/11/06 03:47:15;;;;;;;;;;;;;;;8.87;89.01;101263.25;5039748;28;19986;-59
2022/11/06 03:49:45;;;;;;;;;;;;;;;8.87;88.91;101261.44;5046369;28;19921;-59
2022/11/06 03:52:48;;;;;;;;;;;;;;;8.90;89.26;101250.56;5048755;28;19948;-58
2022/11/06 03:55:15;;;;;;;;;;;;;;;8.93;89.35;101242.31;4992131;28;19917;-58
2022/11/06 03:57:47;;;;;;;;;;;;;;;8.96;89.04;101238.53;4993709;28;20448;-58
2022/11/06 04:00:12;;;;;;;;;;;;;;;8.98;89.01;101247.19;5021548;28;19921;-59
2022/11/06 04:02:40;;;;;;;;;;;;;;;8.99;89.06;101241.72;5050902;28;19927;-58
2022/11/06 04:05:09;;;;;;;;;;;;;;;9.00;88.81;101242.56;5046217;28;19966;-57
2022/11/06 04:07:36;;;;;;;;;;;;;;;9.01;88.67;101238.94;5048804;28;19928;-58
2022/11/06 04:15:45;;;;;;;;;;;;;;;9.00;88.62;101240.75;5040173;28;20284;-58
2022/11/06 04:18:10;;;;;;;;;;;;;;;9.03;88.65;101233.47;5048304;28;20603;-58
2022/11/06 04:23:42;;;;;;;;;;;;;;;9.03;88.83;101222.88;5048711;28;19923;-58
2022/11/06 04:29:02;;;;;;;;;;;;;;;9.00;88.58;101208.97;5049870;28;19951;-58
2022/11/06 04:31:41;;;;;;;;;;;;;;;8.97;88.63;101203.13;5046023;28;20024;-58
2022/11/06 04:34:21;;;;;;;;;;;;;;;8.93;88.82;101197.28;5051578;28;20031;-57
2022/11/06 04:37:00;;;;;;;;;;;;;;;8.91;88.72;101195.75;5046400;28;19924;-58
2022/11/06 04:39:25;;;;;;;;;;;;;;;8.89;88.78;101189.78;5051382;28;19920;-59
2022/11/06 04:42:00;;;;;;;;;;;;;;;8.86;88.88;101190.09;5049589;28;19917;-58
2022/11/06 04:44:30;;;;;;;;;;;;;;;8.85;88.89;101183.97;5047393;28;19917;-58
2022/11/06 04:47:09;;;;;;;;;;;;;;;8.82;89.27;101200.16;5042708;28;20629;-59
2022/11/06 04:49:35;;;;;;;;;;;;;;;8.79;89.05;101196.97;5044192;28;19913;-58
2022/11/06 04:52:03;;;;;;;;;;;;;;;8.77;89.14;101191.84;5049724;28;19917;-59
2022/11/06 04:54:28;;;;;;;;;;;;;;;8.76;89.60;101192.00;5048250;28;19916;-58
2022/11/06 04:56:57;;;;;;;;;;;;;;;8.74;89.47;101183.38;5048996;28;19943;-58
2022/11/06 04:59:22;;;;;;;;;;;;;;;8.72;89.80;101194.09;5047519;28;19920;-58
2022/11/06 05:01:48;;;;;;;;;;;;;;;8.71;89.69;101186.31;5045706;28;19973;-56
2022/11/06 05:04:13;;;;;;;;;;;;;;;8.70;90.05;101180.19;5047527;28;19913;-58
2022/11/06 05:06:38;;;;;;;;;;;;;;;8.71;89.86;101181.84;5043131;28;19920;-57
2022/11/06 05:09:03;;;;;;;;;;;;;;;8.65;90.19;101177.13;5046927;28;20437;-58
2022/11/06 05:11:28;;;;;;;;;;;;;;;8.69;90.32;101183.81;5047055;28;20015;-58
2022/11/06 05:13:54;;;;;;;;;;;;;;;8.70;90.09;101188.13;5046510;28;19924;-58
2022/11/06 05:16:19;;;;;;;;;;;;;;;8.69;90.23;101182.00;5051232;28;19996;-58
2022/11/06 05:18:44;;;;;;;;;;;;;;;8.69;90.38;101168.75;5047444;28;19924;-58
2022/11/06 05:23:53;;;;;;;;;;;;;;;8.68;90.38;101163.63;5046516;28;19927;-58
2022/11/06 05:26:19;;;;;;;;;;;;;;;8.69;90.60;101167.94;5048568;28;19917;-58
2022/11/06 05:28:44;;;;;;;;;;;;;;;8.69;90.54;101174.06;5046752;28;19920;-58
2022/11/06 05:31:09;;;;;;;;;;;;;;;8.68;90.29;101171.56;5046315;28;20007;-58
2022/11/06 05:33:34;;;;;;;;;;;;;;;8.67;90.20;101173.38;5052062;28;20279;-58
2022/11/06 05:36:00;;;;;;;;;;;;;;;8.68;90.12;101172.41;5049892;28;19917;-58
2022/11/06 05:38:25;;;;;;;;;;;;;;;8.70;90.35;101166.94;5051900;28;20003;-58
2022/11/06 05:40:51;;;;;;;;;;;;;;;8.70;90.59;101164.28;5054650;28;21556;-57
2022/11/06 05:43:16;;;;;;;;;;;;;;;8.71;90.40;101160.66;5048557;28;19917;-58
2022/11/06 05:45:41;;;;;;;;;;;;;;;8.71;90.12;101155.38;5045614;28;20340;-58
2022/11/06 05:48:06;;;;;;;;;;;;;;;8.70;90.45;101159.00;5050326;28;19923;-58
2022/11/06 05:50:31;;;;;;;;;;;;;;;8.70;90.32;101159.00;5050303;28;20414;-58
2022/11/06 05:52:58;;;;;;;;;;;;;;;8.73;90.29;101144.63;5055062;28;19922;-58
2022/11/06 05:55:23;;;;;;;;;;;;;;;8.73;89.98;101147.28;5050740;28;19917;-57
2022/11/06 05:57:48;;;;;;;;;;;;;;;8.74;90.22;101141.00;5051922;28;20384;-58
2022/11/06 06:00:14;;;;;;;;;;;;;;;8.75;90.22;101140.84;5042839;28;19967;-59
2022/11/06 06:02:39;;;;;;;;;;;;;;;8.76;90.46;101139.03;5049896;28;20376;-58
2022/11/06 06:05:05;;;;;;;;;;;;;;;8.76;90.50;101129.28;5044799;28;20297;-59
2022/11/06 06:07:30;;;;;;;;;;;;;;;8.76;90.50;101123.13;5053235;28;19963;-58
2022/11/06 06:09:55;;;;;;;;;;;;;;;8.77;90.56;101130.94;5049350;28;19967;-58
2022/11/06 06:12:23;;;;;;;;;;;;;;;8.77;90.50;101133.56;5048650;28;20007;-58
2022/11/06 06:14:48;;;;;;;;;;;;;;;8.80;90.41;101129.78;5049369;28;20015;-59
2022/11/06 06:17:13;;;;;;;;;;;;;;;8.80;90.73;101135.09;5049763;28;20007;-57
2022/11/06 06:19:39;;;;;;;;;;;;;;;8.80;90.83;101127.97;5049684;28;19920;-58
2022/11/06 06:22:04;;;;;;;;;;;;;;;8.81;90.69;101123.50;5050747;28;19924;-57
2022/11/06 06:24:29;;;;;;;;;;;;;;;8.82;90.96;101118.06;5049395;28;19912;-58
2022/11/06 06:26:54;;;;;;;;;;;;;;;8.82;90.97;101123.34;5050595;28;19920;-58
2022/11/06 06:29:19;;;;;;;;;;;;;;;8.83;90.93;101119.72;5055523;28;19917;-57
2022/11/06 06:31:44;;;;;;;;;;;;;;;8.83;90.90;101118.88;5043621;28;19999;-58
2022/11/06 06:34:09;;;;;;;;;;;;;;;8.82;90.90;101112.75;5049051;28;20391;-59
2022/11/06 06:36:35;;;;;;;;;;;;;;;8.82;90.69;101131.31;5051381;28;19956;-58
2022/11/06 06:39:00;;;;;;;;;;;;;;;8.84;90.73;101131.97;5045939;28;20519;-59
2022/11/06 06:41:25;;;;;;;;;;;;;;;8.85;90.75;101131.00;5046317;28;19917;-57
2022/11/06 06:43:50;;;;;;;;;;;;;;;8.86;90.79;101140.59;5044624;28;19917;-59
2022/11/06 06:46:16;;;;;;;;;;;;;;;8.88;91.10;101140.44;5038873;28;19982;-58
2022/11/06 06:48:41;;;;;;;;;;;;;;;8.91;90.74;101148.09;5043188;28;19917;-59
2022/11/06 06:51:06;;;;;;;;;;;;;;;8.93;90.90;101131.06;5044700;28;20058;-58
2022/11/06 06:53:32;;;;;;;;;;;;;;;8.95;90.59;101123.78;5046672;28;19916;-58
2022/11/06 06:55:59;;;;;;;;;;;;;;;8.97;90.78;101119.19;5045533;28;19917;-58
2022/11/06 06:58:24;;;;;;;;;;;;;;;9.00;90.58;101112.75;5043429;28;19917;-58
2022/11/06 07:00:49;;;;;;;;;;;;;;;9.00;90.59;101108.28;5045028;28;19941;-58
2022/11/06 07:03:14;;;;;;;;;;;;;;;9.03;90.36;101108.97;5045366;28;19921;-58
2022/11/06 07:05:40;;;;;;;;;;;;;;;9.05;90.25;101107.00;5043335;28;19920;-58
2022/11/06 07:08:05;;;;;;;;;;;;;;;9.06;90.08;101106.84;5049680;28;20065;-58
2022/11/06 07:10:30;;;;;;;;;;;;;;;9.10;89.91;101104.72;5043275;28;19920;-58
2022/11/06 07:12:59;;;;;;;;;;;;;;;9.13;89.89;101104.41;5045899;28;19927;-58
2022/11/06 07:15:24;;;;;;;;;;;;;;;9.15;89.82;101108.56;5046464;28;19927;-58
2022/11/06 07:17:49;;;;;;;;;;;;;;;9.18;90.28;101100.28;5046119;28;19921;-58
2022/11/06 07:20:14;;;;;;;;;;;;;;;9.19;89.80;101094.00;5045407;28;19920;-58
2022/11/06 07:22:40;;;;;;;;;;;;;;;9.25;89.70;101101.34;5055104;28;20017;-58
2022/11/06 07:25:05;;;;;;;;;;;;;;;9.26;89.76;101097.72;5049692;28;20356;-58
2022/11/06 07:27:30;;;;;;;;;;;;;;;9.29;89.77;101093.94;5046003;28;19955;-57
2022/11/06 07:29:55;;;;;;;;;;;;;;;9.31;89.74;101105.19;5041892;28;19917;-57
2022/11/06 07:32:20;;;;;;;;;;;;;;;9.32;89.56;101093.59;5048025;28;19923;-58
2022/11/06 07:34:46;;;;;;;;;;;;;;;9.35;89.34;101101.25;5046711;28;19951;-59
2022/11/06 07:37:11;;;;;;;;;;;;;;;9.36;89.07;101096.78;5048894;28;19960;-58
2022/11/06 07:39:36;;;;;;;;;;;;;;;9.39;89.30;101107.06;5041067;28;20518;-58
2022/11/06 07:42:01;;;;;;;;;;;;;;;9.42;89.31;101112.03;5046027;28;19942;-57
2022/11/06 07:44:27;;;;;;;;;;;;;;;9.45;89.07;101114.38;5042709;28;19963;-58
2022/11/06 07:46:52;;;;;;;;;;;;;;;9.47;88.93;101107.09;5044281;28;19920;-58
2022/11/06 07:49:17;;;;;;;;;;;;;;;9.49;89.16;101100.66;5050530;28;19916;-58
2022/11/06 07:51:43;;;;;;;;;;;;;;;9.52;88.74;101095.03;5045048;28;19987;-58
2022/11/06 07:54:09;;;;;;;;;;;;;;;9.54;88.72;101090.44;5046849;28;19916;-58
2022/11/06 07:56:35;;;;;;;;;;;;;;;9.59;88.57;101087.31;5041982;28;20300;-58
2022/11/06 07:59:00;;;;;;;;;;;;;;;9.63;88.94;101089.47;5047753;28;19917;-59
2022/11/06 08:01:25;;;;;;;;;;;;;;;9.67;88.62;101089.16;5046243;28;19916;-59
2022/11/06 08:03:50;;;;;;;;;;;;;;;9.70;88.40;101092.31;5049951;28;19969;-58
2022/11/06 08:06:15;;;;;;;;;;;;;;;9.73;88.27;101089.34;5049736;28;19917;-57
2022/11/06 08:08:41;;;;;;;;;;;;;;;9.76;88.21;101088.19;5044921;28;19940;-58
2022/11/06 08:11:07;;;;;;;;;;;;;;;9.76;88.34;101089.03;5039441;28;19924;-58
2022/11/06 08:13:33;;;;;;;;;;;;;;;9.77;88.32;101079.25;5045330;28;19912;-59
2022/11/06 08:16:02;;;;;;;;;;;;;;;9.78;87.87;101086.22;5037280;28;20285;-59
2022/11/06 08:18:27;;;;;;;;;;;;;;;9.79;88.08;101085.22;5043641;28;19960;-58
2022/11/06 08:20:52;;;;;;;;;;;;;;;9.81;87.94;101076.13;5043097;28;20367;-59
2022/11/06 08:23:18;;;;;;;;;;;;;;;9.84;88.29;101089.09;5040775;28;19924;-58
2022/11/06 08:25:43;;;;;;;;;;;;;;;9.87;87.91;101080.81;5042511;28;19917;-58
2022/11/06 08:28:08;;;;;;;;;;;;;;;9.92;87.79;101075.84;5041025;28;19924;-58
2022/11/06 08:30:33;;;;;;;;;;;;;;;9.94;87.72;101068.56;5045121;28;20447;-57
2022/11/06 08:33:04;;;;;;;;;;;;;;;9.98;87.53;101073.53;5047233;28;19923;-58
2022/11/06 08:35:29;;;;;;;;;;;;;;;10.02;87.40;101069.56;5047234;28;19939;-57
2022/11/06 08:37:55;;;;;;;;;;;;;;;10.07;87.36;101065.44;5049582;28;20396;-58
2022/11/06 08:40:20;;;;;;;;;;;;;;;10.13;87.29;101048.88;5049393;28;20273;-58
2022/11/06 08:42:45;;;;;;;;;;;;;;;10.19;87.36;101040.25;5044942;28;19913;-58
2022/11/06 08:45:10;;;;;;;;;;;;;;;10.26;87.18;101048.44;5050059;28;19919;-57
2022/11/06 08:47:35;;;;;;;;;;;;;;;10.34;87.22;101045.78;5051064;28;19912;-58
2022/11/06 08:50:00;;;;;;;;;;;;;;;10.40;86.72;101047.78;5046237;28;20031;-57
2022/11/06 08:52:26;;;;;;;;;;;;;;;10.49;86.65;101043.31;5055134;28;19912;-58
2022/11/06 08:54:51;;;;;;;;;;;;;;;10.56;86.69;101041.66;5050893;28;20002;-57
2022/11/06 08:57:16;;;;;;;;;;;;;;;10.64;86.22;101035.50;5054005;28;19913;-58
2022/11/06 08:59:42;;;;;;;;;;;;;;;10.67;86.30;101030.69;5047177;28;19974;-58
2022/11/06 09:02:10;;;;;;;;;;;;;;;10.70;86.30;101019.75;5047119;28;19917;-58
2022/11/06 09:04:36;;;;;;;;;;;;;;;10.72;85.82;101028.38;5048225;28;19919;-57
2022/11/06 09:07:01;;;;;;;;;;;;;;;10.73;86.21;101011.47;5050281;28;20500;-59
2022/11/06 09:09:30;;;;;;;;;;;;;;;10.77;85.90;101015.44;5045596;28;19967;-58
2022/11/06 09:11:56;;;;;;;;;;;;;;;10.80;85.36;101000.97;5049521;28;20376;-58
2022/11/06 09:14:21;;;;;;;;;;;;;;;10.82;85.49;101007.78;5050532;28;19913;-58
2022/11/06 09:16:46;;;;;;;;;;;;;;;10.88;85.40;101000.13;5052067;28;19913;-58
2022/11/06 09:19:11;;;;;;;;;;;;;;;10.89;84.94;100997.31;5050935;28;19919;-58
2022/11/06 09:21:36;;;;;;;;;;;;;;;10.89;85.23;100994.66;5052564;28;19917;-57
2022/11/06 09:24:02;;;;;;;;;;;;;;;10.90;84.28;100992.81;5047479;28;19996;-58
2022/11/06 09:26:27;;;;;;;;;;;;;;;10.87;83.96;100988.69;5053661;28;19912;-58
2022/11/06 09:28:52;;;;;;;;;;;;;;;10.86;83.61;100987.84;5052429;28;20025;-57
2022/11/06 09:31:18;;;;;;;;;;;;;;;10.91;84.02;100984.69;5053629;28;19952;-57
2022/11/06 09:33:44;;;;;;;;;;;;;;;10.93;83.76;100982.69;5052231;28;20403;-57
2022/11/06 09:36:09;;;;;;;;;;;;;;;10.99;83.65;100978.53;5051348;28;19917;-58
2022/11/06 09:38:34;;;;;;;;;;;;;;;11.00;83.34;100969.56;5052177;28;20384;-58
2022/11/06 09:41:02;;;;;;;;;;;;;;;11.05;83.08;100977.84;5050257;28;19921;-58
2022/11/06 09:43:37;;;;;;;;;;;;;;;11.09;83.15;100977.34;5051608;28;19912;-57
2022/11/06 09:46:10;;;;;;;;;;;;;;;11.14;82.91;100975.00;5048801;28;20011;-58
2022/11/06 09:48:38;;;;;;;;;;;;;;;11.19;82.24;100971.81;5057105;28;19913;-58
2022/11/06 09:51:10;;;;;;;;;;;;;;;11.23;81.91;100970.47;5056313;28;19970;-58
2022/11/06 09:53:38;;;;;;;;;;;;;;;11.29;81.88;100975.13;5043236;28;19912;-57
2022/11/06 09:56:04;;;;;;;;;;;;;;;11.32;81.54;100979.28;5051068;28;20042;-58
2022/11/06 09:58:32;;;;;;;;;;;;;;;11.33;81.27;100970.28;5051230;28;19962;-58
2022/11/06 10:01:01;;;;;;;;;;;;;;;11.38;81.48;100966.09;5050790;28;19917;-57
2022/11/06 10:03:52;;;;;;;;;;;;;;;11.43;80.74;100976.22;5050061;28;20018;-58
2022/11/06 10:06:20;;;;;;;;;;;;;;;11.45;80.54;100969.72;5049273;28;19920;-57
2022/11/06 10:08:45;;;;;;;;;;;;;;;11.45;80.54;100961.75;5063924;28;19912;-58
2022/11/06 10:11:13;;;;;;;;;;;;;;;11.49;80.56;100964.88;5057091;28;20337;-57
2022/11/06 10:13:38;;;;;;;;;;;;;;;11.53;79.78;100965.38;5051705;28;19924;-58
2022/11/06 10:16:18;;;;;;;;;;;;;;;11.57;79.85;100964.03;5054740;28;19920;-58
2022/11/06 10:19:01;;;;;;;;;;;;;;;11.65;79.71;100951.53;5053491;28;19955;-58
2022/11/06 10:21:33;;;;;;;;;;;;;;;11.70;79.25;100943.84;5050146;28;20354;-57
2022/11/06 10:24:03;;;;;;;;;;;;;;;11.78;78.88;100942.97;5051376;28;19916;-58
2022/11/06 10:26:39;;;;;;;;;;;;;;;11.87;78.88;100944.59;5058665;28;19913;-58
2022/11/06 10:29:23;;;;;;;;;;;;;;;11.92;78.39;100936.09;5050458;28;19935;-59
2022/11/06 10:32:06;;;;;;;;;;;;;;;11.96;78.34;100948.03;5048514;28;19959;-58
2022/11/06 10:34:37;;;;;;;;;;;;;;;11.96;78.43;100942.72;5051853;28;19921;-58
2022/11/06 10:37:06;;;;;;;;;;;;;;;11.93;77.87;100938.56;5050834;28;19912;-58
2022/11/06 10:39:34;;;;;;;;;;;;;;;11.84;77.16;100936.13;5053504;28;19963;-58
2022/11/06 10:42:02;;;;;;;;;;;;;;;11.82;77.35;100936.31;5052541;28;20024;-58
2022/11/06 10:44:30;;;;;;;;;;;;;;;11.74;77.20;100929.19;5050054;28;19913;-58
2022/11/06 10:47:01;;;;;;;;;;;;;;;11.72;77.33;100925.03;5051106;28;20008;-58
2022/11/06 10:49:28;;;;;;;;;;;;;;;11.67;77.01;100914.94;5053331;28;19917;-58
2022/11/06 10:51:59;;;;;;;;;;;;;;;11.64;76.79;100909.13;5052655;28;20323;-59
2022/11/06 10:54:52;;;;;;;;;;;;;;;11.70;77.72;100903.09;5044614;28;19917;-58
2022/11/06 10:57:17;;;;;;;;;;;;;;;11.78;77.07;100895.91;5047567;28;19931;-58
2022/11/06 10:59:42;;;;;;;;;;;;;;;11.91;77.60;100897.19;5049759;28;19920;-58
2022/11/06 11:02:23;;;;;;;;;;;;;;;11.94;77.05;100892.31;5049751;28;19948;-58
2022/11/06 11:04:48;;;;;;;;;;;;;;;12.00;77.33;100888.94;5051128;28;19913;-58
2022/11/06 11:07:14;;;;;;;;;;;;;;;12.07;76.84;100884.56;5050283;28;19920;-57
2022/11/06 11:09:39;;;;;;;;;;;;;;;12.12;76.50;100880.53;5053116;28;20408;-58
2022/11/06 11:12:18;;;;;;;;;;;;;;;12.21;76.54;100866.16;5049527;28;19913;-58
2022/11/06 11:14:43;;;;;;;;;;;;;;;12.26;76.32;100875.25;5051165;28;19916;-57
2022/11/06 11:17:08;;;;;;;;;;;;;;;12.32;76.17;100863.88;5050579;28;19962;-58
2022/11/06 11:19:35;;;;;;;;;;;;;;;12.41;75.97;100873.41;5048499;28;19923;-58
2022/11/06 11:22:02;;;;;;;;;;;;;;;12.40;74.91;100874.44;5050263;28;19919;-58
2022/11/06 11:24:28;;;;;;;;;;;;;;;12.41;74.90;100872.59;5054816;28;20003;-58
2022/11/06 11:26:55;;;;;;;;;;;;;;;12.54;75.17;100871.97;5052041;28;20062;-58
2022/11/06 11:29:26;;;;;;;;;;;;;;;12.63;74.70;100860.22;5047176;28;19917;-58
2022/11/06 11:31:55;;;;;;;;;;;;;;;12.65;74.90;100853.69;5051848;28;19917;-58
2022/11/06 11:34:22;;;;;;;;;;;;;;;12.64;74.09;100851.22;5053488;28;19920;-58
2022/11/06 11:36:52;;;;;;;;;;;;;;;12.55;73.86;100842.50;5057815;28;19977;-57
2022/11/06 11:39:20;;;;;;;;;;;;;;;12.55;73.58;100845.16;5052363;28;19913;-58
2022/11/06 11:41:45;;;;;;;;;;;;;;;12.62;73.77;100837.25;5053242;28;19913;-58
2022/11/06 11:44:10;;;;;;;;;;;;;;;12.70;74.26;100834.50;5051358;28;19913;-58
2022/11/06 11:46:44;;;;;;;;;;;;;;;12.73;73.21;100839.47;5048107;28;19913;-58
2022/11/06 11:49:23;;;;;;;;;;;;;;;12.63;72.68;100834.41;5046933;28;19913;-58
2022/11/06 11:51:48;;;;;;;;;;;;;;;12.41;72.19;100836.13;5048432;28;19913;-58
2022/11/06 11:54:22;;;;;;;;;;;;;;;12.26;72.49;100837.97;5050879;28;20017;-57
2022/11/06 11:56:52;;;;;;;;;;;;;;;12.13;72.29;100823.59;5047309;28;20003;-57
2022/11/06 11:59:19;;;;;;;;;;;;;;;12.03;72.44;100834.53;5048806;28;19919;-57
2022/11/06 12:01:44;;;;;;;;;;;;;;;11.93;72.24;100828.63;5050174;28;20012;-58
2022/11/06 12:04:16;;;;;;;;;;;;;;;11.89;72.15;100820.19;5051288;28;20003;-58
2022/11/06 12:07:07;;;;;;;;;;;;;;;11.87;72.39;100816.88;5052960;28;20471;-58
2022/11/06 12:09:39;;;;;;;;;;;;;;;11.86;72.56;100823.22;5041509;28;19912;-58
2022/11/06 12:12:04;;;;;;;;;;;;;;;11.84;72.51;100798.59;5048166;28;20437;-58
2022/11/06 12:14:31;;;;;;;;;;;;;;;11.80;72.44;100789.31;5046088;28;19921;-58
2022/11/06 12:17:07;;;;;;;;;;;;;;;11.83;72.69;100783.63;5050158;28;19912;-58
2022/11/06 12:19:33;;;;;;;;;;;;;;;11.84;73.53;100779.97;5047651;28;20011;-58
2022/11/06 12:22:02;;;;;;;;;;;;;;;11.87;73.35;100765.50;5048201;28;19970;-58
2022/11/06 12:24:32;;;;;;;;;;;;;;;11.86;72.69;100779.81;5059880;28;19912;-58
2022/11/06 12:27:01;;;;;;;;;;;;;;;11.79;72.69;100772.53;5050616;28;20368;-58
2022/11/06 12:29:37;;;;;;;;;;;;;;;11.76;72.95;100762.22;5048836;28;19921;-59
2022/11/06 12:32:08;;;;;;;;;;;;;;;11.78;73.09;100773.53;5048768;28;20297;-58
2022/11/06 12:34:38;;;;;;;;;;;;;;;11.74;72.22;100771.38;5052219;28;20364;-58
2022/11/06 12:37:18;;;;;;;;;;;;;;;11.73;72.49;100767.06;5056864;28;19928;-58
2022/11/06 12:39:48;;;;;;;;;;;;;;;11.75;72.88;100759.72;5047622;28;20364;-57
2022/11/06 12:42:15;;;;;;;;;;;;;;;11.75;72.83;100754.41;5047823;28;19921;-58
2022/11/06 12:44:40;;;;;;;;;;;;;;;11.77;72.40;100757.72;5050965;28;20430;-58
2022/11/06 12:47:17;;;;;;;;;;;;;;;11.73;72.21;100753.75;5048085;28;19914;-57
2022/11/06 12:50:01;;;;;;;;;;;;;;;11.72;72.41;100744.97;5044954;28;20003;-58
2022/11/06 12:52:45;;;;;;;;;;;;;;;11.73;72.43;100757.25;5049004;28;20030;-58
2022/11/06 12:55:36;;;;;;;;;;;;;;;11.73;72.48;100757.25;5045233;28;19921;-57
2022/11/06 12:58:14;;;;;;;;;;;;;;;11.74;72.43;100752.75;5045456;28;19916;-59
2022/11/06 13:00:39;;;;;;;;;;;;;;;11.72;71.58;100762.75;5051043;28;19916;-58
2022/11/06 13:03:07;;;;;;;;;;;;;;;11.68;71.37;100753.47;5049008;28;19928;-57